sensor_id;sensor_type;location;lat;lon;timestamp;P1;durP1;ratioP1;P2;durP2;ratioP2
77359;SDS011;66426;51.454;7.266;2023-03-20T00:00:56;22.25;;;10.95;;
77359;SDS011;66426;51.454;7.266;2023-03-20T00:01:57;23.00;;;11.68;;
77359;SDS011;66426;51.454;7.266;2023-03-20T00:02:58;22.15;;;11.55;;
77359;SDS011;66426;51.454;7.266;2023-03-20T00:03:59;22.92;;;11.27;;
77359;SDS011;66426;51.454;7.266;2023-03-20T00:04:59;23.52;;;11.13;;
77359;SDS011;66426;51.454;7.266;2023-03-20T00:06:01;22.27;;;10.93;;
77359;SDS011;66426;51.454;7.266;2023-03-20T00:07:02;22.08;;;10.98;;
77359;SDS011;66426;51.454;7.266;2023-03-20T00:08:03;20.88;;;11.52;;
77359;SDS011;66426;51.454;7.266;2023-03-20T00:09:04;18.20;;;9.88;;
77359;SDS011;66426;51.454;7.266;2023-03-20T00:10:05;22.42;;;10.77;;
77359;SDS011;66426;51.454;7.266;2023-03-20T00:11:07;21.15;;;10.93;;
77359;SDS011;66426;51.454;7.266;2023-03-20T00:12:09;20.00;;;10.85;;
77359;SDS011;66426;51.454;7.266;2023-03-20T00:13:14;21.48;;;11.13;;
77359;SDS011;66426;51.454;7.266;2023-03-20T00:14:19;23.33;;;11.40;;
77359;SDS011;66426;51.454;7.266;2023-03-20T00:15:26;24.02;;;11.07;;
77359;SDS011;66426;51.454;7.266;2023-03-20T00:16:29;24.00;;;12.07;;
77359;SDS011;66426;51.454;7.266;2023-03-20T00:17:30;27.45;;;11.35;;
77359;SDS011;66426;51.454;7.266;2023-03-20T00:18:31;21.60;;;11.27;;
77359;SDS011;66426;51.454;7.266;2023-03-20T00:19:32;24.42;;;11.35;;
77359;SDS011;66426;51.454;7.266;2023-03-20T00:20:33;23.88;;;11.82;;
77359;SDS011;66426;51.454;7.266;2023-03-20T00:21:35;22.33;;;10.95;;
77359;SDS011;66426;51.454;7.266;2023-03-20T00:22:36;22.80;;;11.45;;
77359;SDS011;66426;51.454;7.266;2023-03-20T00:23:36;23.67;;;11.20;;
77359;SDS011;66426;51.454;7.266;2023-03-20T00:24:37;21.50;;;10.45;;
77359;SDS011;66426;51.454;7.266;2023-03-20T00:25:38;21.23;;;10.88;;
77359;SDS011;66426;51.454;7.266;2023-03-20T00:26:39;21.42;;;10.82;;
77359;SDS011;66426;51.454;7.266;2023-03-20T00:27:40;20.85;;;10.30;;
77359;SDS011;66426;51.454;7.266;2023-03-20T00:28:41;21.10;;;10.75;;
77359;SDS011;66426;51.454;7.266;2023-03-20T00:29:43;23.50;;;10.70;;
77359;SDS011;66426;51.454;7.266;2023-03-20T00:30:44;22.35;;;11.43;;
77359;SDS011;66426;51.454;7.266;2023-03-20T00:31:45;24.15;;;10.77;;
77359;SDS011;66426;51.454;7.266;2023-03-20T00:32:46;19.95;;;10.48;;
77359;SDS011;66426;51.454;7.266;2023-03-20T00:33:46;22.00;;;10.93;;
77359;SDS011;66426;51.454;7.266;2023-03-20T00:34:47;23.52;;;12.30;;
77359;SDS011;66426;51.454;7.266;2023-03-20T00:35:48;23.88;;;11.52;;
77359;SDS011;66426;51.454;7.266;2023-03-20T00:36:50;30.15;;;12.23;;
77359;SDS011;66426;51.454;7.266;2023-03-20T00:37:51;21.90;;;11.32;;
77359;SDS011;66426;51.454;7.266;2023-03-20T00:38:52;22.60;;;10.93;;
77359;SDS011;66426;51.454;7.266;2023-03-20T00:39:53;24.33;;;12.57;;
77359;SDS011;66426;51.454;7.266;2023-03-20T00:40:53;21.70;;;12.02;;
77359;SDS011;66426;51.454;7.266;2023-03-20T00:41:54;24.38;;;12.45;;
77359;SDS011;66426;51.454;7.266;2023-03-20T00:42:58;25.25;;;12.48;;
77359;SDS011;66426;51.454;7.266;2023-03-20T00:44:00;23.88;;;12.40;;
77359;SDS011;66426;51.454;7.266;2023-03-20T00:45:02;21.55;;;11.73;;
77359;SDS011;66426;51.454;7.266;2023-03-20T00:46:02;24.23;;;12.38;;
77359;SDS011;66426;51.454;7.266;2023-03-20T00:47:04;23.95;;;11.15;;
77359;SDS011;66426;51.454;7.266;2023-03-20T00:48:07;22.23;;;12.32;;
77359;SDS011;66426;51.454;7.266;2023-03-20T00:49:11;25.65;;;12.32;;
77359;SDS011;66426;51.454;7.266;2023-03-20T00:50:16;24.52;;;12.35;;
77359;SDS011;66426;51.454;7.266;2023-03-20T00:51:18;25.00;;;12.65;;
77359;SDS011;66426;51.454;7.266;2023-03-20T00:52:20;24.88;;;12.07;;
77359;SDS011;66426;51.454;7.266;2023-03-20T00:53:21;24.58;;;12.45;;
77359;SDS011;66426;51.454;7.266;2023-03-20T00:54:22;21.98;;;11.43;;
77359;SDS011;66426;51.454;7.266;2023-03-20T00:55:23;27.00;;;12.57;;
77359;SDS011;66426;51.454;7.266;2023-03-20T00:56:29;24.83;;;12.32;;
77359;SDS011;66426;51.454;7.266;2023-03-20T00:57:33;24.15;;;11.80;;
77359;SDS011;66426;51.454;7.266;2023-03-20T00:58:35;23.75;;;10.98;;
77359;SDS011;66426;51.454;7.266;2023-03-20T00:59:36;23.63;;;11.52;;
77359;SDS011;66426;51.454;7.266;2023-03-20T01:00:38;21.05;;;10.05;;
77359;SDS011;66426;51.454;7.266;2023-03-20T01:01:39;21.73;;;11.15;;
77359;SDS011;66426;51.454;7.266;2023-03-20T01:02:40;19.45;;;9.60;;
77359;SDS011;66426;51.454;7.266;2023-03-20T01:03:41;19.73;;;10.65;;
77359;SDS011;66426;51.454;7.266;2023-03-20T01:04:42;17.23;;;9.27;;
77359;SDS011;66426;51.454;7.266;2023-03-20T01:05:43;23.45;;;9.90;;
77359;SDS011;66426;51.454;7.266;2023-03-20T01:06:44;18.85;;;9.85;;
77359;SDS011;66426;51.454;7.266;2023-03-20T01:07:46;20.40;;;9.80;;
77359;SDS011;66426;51.454;7.266;2023-03-20T01:08:47;18.35;;;9.68;;
77359;SDS011;66426;51.454;7.266;2023-03-20T01:09:49;19.52;;;9.80;;
77359;SDS011;66426;51.454;7.266;2023-03-20T01:10:51;20.30;;;10.35;;
77359;SDS011;66426;51.454;7.266;2023-03-20T01:11:52;18.85;;;9.52;;
77359;SDS011;66426;51.454;7.266;2023-03-20T01:12:53;17.13;;;9.23;;
77359;SDS011;66426;51.454;7.266;2023-03-20T01:13:55;21.02;;;10.65;;
77359;SDS011;66426;51.454;7.266;2023-03-20T01:14:56;18.13;;;9.10;;
77359;SDS011;66426;51.454;7.266;2023-03-20T01:15:57;17.35;;;8.48;;
77359;SDS011;66426;51.454;7.266;2023-03-20T01:16:58;18.88;;;8.88;;
77359;SDS011;66426;51.454;7.266;2023-03-20T01:17:59;18.08;;;9.32;;
77359;SDS011;66426;51.454;7.266;2023-03-20T01:19:00;17.75;;;8.70;;
77359;SDS011;66426;51.454;7.266;2023-03-20T01:20:00;18.17;;;8.30;;
77359;SDS011;66426;51.454;7.266;2023-03-20T01:21:01;20.58;;;9.20;;
77359;SDS011;66426;51.454;7.266;2023-03-20T01:22:02;17.25;;;8.98;;
77359;SDS011;66426;51.454;7.266;2023-03-20T01:23:04;19.45;;;8.45;;
77359;SDS011;66426;51.454;7.266;2023-03-20T01:24:06;16.27;;;8.93;;
77359;SDS011;66426;51.454;7.266;2023-03-20T01:25:07;17.02;;;8.50;;
77359;SDS011;66426;51.454;7.266;2023-03-20T01:26:11;17.33;;;8.88;;
77359;SDS011;66426;51.454;7.266;2023-03-20T01:27:18;17.63;;;8.52;;
77359;SDS011;66426;51.454;7.266;2023-03-20T01:28:20;17.20;;;8.60;;
77359;SDS011;66426;51.454;7.266;2023-03-20T01:29:22;18.17;;;8.18;;
77359;SDS011;66426;51.454;7.266;2023-03-20T01:30:23;16.17;;;8.15;;
77359;SDS011;66426;51.454;7.266;2023-03-20T01:31:24;17.17;;;8.45;;
77359;SDS011;66426;51.454;7.266;2023-03-20T01:32:25;17.17;;;8.25;;
77359;SDS011;66426;51.454;7.266;2023-03-20T01:33:26;18.15;;;8.95;;
77359;SDS011;66426;51.454;7.266;2023-03-20T01:34:28;18.13;;;8.90;;
77359;SDS011;66426;51.454;7.266;2023-03-20T01:35:29;14.90;;;8.18;;
77359;SDS011;66426;51.454;7.266;2023-03-20T01:36:30;17.40;;;8.23;;
77359;SDS011;66426;51.454;7.266;2023-03-20T01:37:31;17.38;;;8.85;;
77359;SDS011;66426;51.454;7.266;2023-03-20T01:38:34;15.63;;;8.68;;
77359;SDS011;66426;51.454;7.266;2023-03-20T01:39:35;16.60;;;8.20;;
77359;SDS011;66426;51.454;7.266;2023-03-20T01:40:39;16.48;;;8.48;;
77359;SDS011;66426;51.454;7.266;2023-03-20T01:41:42;19.95;;;8.98;;
77359;SDS011;66426;51.454;7.266;2023-03-20T01:42:42;16.60;;;7.63;;
77359;SDS011;66426;51.454;7.266;2023-03-20T01:43:43;14.00;;;7.55;;
77359;SDS011;66426;51.454;7.266;2023-03-20T01:44:45;16.58;;;7.78;;
77359;SDS011;66426;51.454;7.266;2023-03-20T01:45:48;16.75;;;7.57;;
77359;SDS011;66426;51.454;7.266;2023-03-20T01:46:50;14.05;;;7.32;;
77359;SDS011;66426;51.454;7.266;2023-03-20T01:47:51;16.33;;;7.97;;
77359;SDS011;66426;51.454;7.266;2023-03-20T01:48:59;16.65;;;8.18;;
77359;SDS011;66426;51.454;7.266;2023-03-20T01:51:31;14.25;;;7.75;;
77359;SDS011;66426;51.454;7.266;2023-03-20T01:52:32;17.45;;;8.57;;
77359;SDS011;66426;51.454;7.266;2023-03-20T01:53:34;16.90;;;8.43;;
77359;SDS011;66426;51.454;7.266;2023-03-20T01:54:36;15.27;;;7.72;;
77359;SDS011;66426;51.454;7.266;2023-03-20T01:55:38;17.02;;;9.48;;
77359;SDS011;66426;51.454;7.266;2023-03-20T01:56:40;17.15;;;8.35;;
77359;SDS011;66426;51.454;7.266;2023-03-20T01:57:43;17.90;;;9.43;;
77359;SDS011;66426;51.454;7.266;2023-03-20T01:58:44;21.13;;;9.45;;
77359;SDS011;66426;51.454;7.266;2023-03-20T01:59:46;16.77;;;8.65;;
77359;SDS011;66426;51.454;7.266;2023-03-20T02:00:48;17.00;;;8.50;;
77359;SDS011;66426;51.454;7.266;2023-03-20T02:01:49;16.33;;;8.60;;
77359;SDS011;66426;51.454;7.266;2023-03-20T02:02:50;19.50;;;8.90;;
77359;SDS011;66426;51.454;7.266;2023-03-20T02:03:51;16.98;;;8.60;;
77359;SDS011;66426;51.454;7.266;2023-03-20T02:04:52;17.77;;;8.73;;
77359;SDS011;66426;51.454;7.266;2023-03-20T02:05:55;16.08;;;7.85;;
77359;SDS011;66426;51.454;7.266;2023-03-20T02:06:56;15.43;;;7.97;;
77359;SDS011;66426;51.454;7.266;2023-03-20T02:07:59;16.08;;;7.72;;
77359;SDS011;66426;51.454;7.266;2023-03-20T02:09:03;17.15;;;9.48;;
77359;SDS011;66426;51.454;7.266;2023-03-20T02:10:04;13.93;;;7.10;;
77359;SDS011;66426;51.454;7.266;2023-03-20T02:11:06;17.33;;;7.57;;
77359;SDS011;66426;51.454;7.266;2023-03-20T02:12:07;14.43;;;7.55;;
77359;SDS011;66426;51.454;7.266;2023-03-20T02:13:08;15.23;;;7.53;;
77359;SDS011;66426;51.454;7.266;2023-03-20T02:14:10;14.52;;;7.10;;
77359;SDS011;66426;51.454;7.266;2023-03-20T02:15:12;16.85;;;8.13;;
77359;SDS011;66426;51.454;7.266;2023-03-20T02:16:13;15.23;;;7.00;;
77359;SDS011;66426;51.454;7.266;2023-03-20T02:17:14;15.18;;;7.50;;
77359;SDS011;66426;51.454;7.266;2023-03-20T02:18:15;13.82;;;7.78;;
77359;SDS011;66426;51.454;7.266;2023-03-20T02:19:19;15.45;;;7.68;;
77359;SDS011;66426;51.454;7.266;2023-03-20T02:20:27;14.45;;;6.93;;
77359;SDS011;66426;51.454;7.266;2023-03-20T02:21:43;15.77;;;7.63;;
77359;SDS011;66426;51.454;7.266;2023-03-20T02:22:58;13.73;;;7.38;;
77359;SDS011;66426;51.454;7.266;2023-03-20T02:24:21;14.13;;;7.15;;
77359;SDS011;66426;51.454;7.266;2023-03-20T02:25:43;16.45;;;7.32;;
77359;SDS011;66426;51.454;7.266;2023-03-20T02:26:51;14.85;;;8.10;;
77359;SDS011;66426;51.454;7.266;2023-03-20T02:28:02;13.55;;;6.72;;
77359;SDS011;66426;51.454;7.266;2023-03-20T02:30:36;12.27;;;6.97;;
77359;SDS011;66426;51.454;7.266;2023-03-20T02:31:50;13.57;;;6.75;;
77359;SDS011;66426;51.454;7.266;2023-03-20T02:33:09;14.55;;;7.10;;
77359;SDS011;66426;51.454;7.266;2023-03-20T02:37:58;14.10;;;6.45;;
77359;SDS011;66426;51.454;7.266;2023-03-20T02:39:11;14.48;;;6.10;;
77359;SDS011;66426;51.454;7.266;2023-03-20T02:40:17;13.65;;;6.93;;
77359;SDS011;66426;51.454;7.266;2023-03-20T02:41:21;13.65;;;6.78;;
77359;SDS011;66426;51.454;7.266;2023-03-20T02:42:26;13.85;;;6.75;;
77359;SDS011;66426;51.454;7.266;2023-03-20T02:43:32;12.40;;;6.53;;
77359;SDS011;66426;51.454;7.266;2023-03-20T02:44:35;11.57;;;5.93;;
77359;SDS011;66426;51.454;7.266;2023-03-20T02:46:41;12.57;;;6.45;;
77359;SDS011;66426;51.454;7.266;2023-03-20T02:47:47;12.10;;;6.70;;
77359;SDS011;66426;51.454;7.266;2023-03-20T02:48:50;13.77;;;6.47;;
77359;SDS011;66426;51.454;7.266;2023-03-20T02:49:56;11.10;;;6.07;;
77359;SDS011;66426;51.454;7.266;2023-03-20T02:51:01;10.55;;;5.53;;
77359;SDS011;66426;51.454;7.266;2023-03-20T02:52:03;11.65;;;6.38;;
77359;SDS011;66426;51.454;7.266;2023-03-20T02:53:10;11.70;;;6.43;;
77359;SDS011;66426;51.454;7.266;2023-03-20T02:54:18;12.10;;;6.10;;
77359;SDS011;66426;51.454;7.266;2023-03-20T02:55:24;12.65;;;5.85;;
77359;SDS011;66426;51.454;7.266;2023-03-20T02:56:27;11.35;;;5.82;;
77359;SDS011;66426;51.454;7.266;2023-03-20T02:57:32;12.60;;;6.60;;
77359;SDS011;66426;51.454;7.266;2023-03-20T02:58:37;11.25;;;5.82;;
77359;SDS011;66426;51.454;7.266;2023-03-20T02:59:42;10.57;;;5.68;;
77359;SDS011;66426;51.454;7.266;2023-03-20T03:00:46;11.60;;;5.50;;
77359;SDS011;66426;51.454;7.266;2023-03-20T03:01:50;9.85;;;5.53;;
77359;SDS011;66426;51.454;7.266;2023-03-20T03:02:55;12.85;;;5.63;;
77359;SDS011;66426;51.454;7.266;2023-03-20T03:03:59;9.60;;;5.32;;
77359;SDS011;66426;51.454;7.266;2023-03-20T03:05:01;9.55;;;5.10;;
77359;SDS011;66426;51.454;7.266;2023-03-20T03:06:05;9.40;;;5.20;;
77359;SDS011;66426;51.454;7.266;2023-03-20T03:07:06;8.38;;;4.55;;
77359;SDS011;66426;51.454;7.266;2023-03-20T03:08:10;8.70;;;4.50;;
77359;SDS011;66426;51.454;7.266;2023-03-20T03:09:13;8.55;;;4.65;;
77359;SDS011;66426;51.454;7.266;2023-03-20T03:10:17;8.85;;;4.55;;
77359;SDS011;66426;51.454;7.266;2023-03-20T03:11:20;10.02;;;4.57;;
77359;SDS011;66426;51.454;7.266;2023-03-20T03:12:22;8.05;;;4.38;;
77359;SDS011;66426;51.454;7.266;2023-03-20T03:13:25;8.30;;;4.10;;
77359;SDS011;66426;51.454;7.266;2023-03-20T03:14:30;10.23;;;4.88;;
77359;SDS011;66426;51.454;7.266;2023-03-20T03:15:33;9.50;;;4.40;;
77359;SDS011;66426;51.454;7.266;2023-03-20T03:16:35;10.82;;;4.20;;
77359;SDS011;66426;51.454;7.266;2023-03-20T03:17:37;9.48;;;4.13;;
77359;SDS011;66426;51.454;7.266;2023-03-20T03:18:38;9.18;;;4.18;;
77359;SDS011;66426;51.454;7.266;2023-03-20T03:19:41;6.88;;;4.03;;
77359;SDS011;66426;51.454;7.266;2023-03-20T03:20:43;7.85;;;4.30;;
77359;SDS011;66426;51.454;7.266;2023-03-20T03:21:45;9.10;;;4.63;;
77359;SDS011;66426;51.454;7.266;2023-03-20T03:22:47;7.80;;;4.30;;
77359;SDS011;66426;51.454;7.266;2023-03-20T03:23:50;7.88;;;4.40;;
77359;SDS011;66426;51.454;7.266;2023-03-20T03:24:52;10.63;;;4.38;;
77359;SDS011;66426;51.454;7.266;2023-03-20T03:25:53;8.00;;;3.97;;
77359;SDS011;66426;51.454;7.266;2023-03-20T03:26:55;8.68;;;3.85;;
77359;SDS011;66426;51.454;7.266;2023-03-20T03:27:59;8.38;;;4.32;;
77359;SDS011;66426;51.454;7.266;2023-03-20T03:29:01;7.50;;;3.92;;
77359;SDS011;66426;51.454;7.266;2023-03-20T03:30:05;8.52;;;4.50;;
77359;SDS011;66426;51.454;7.266;2023-03-20T03:31:08;9.02;;;4.28;;
77359;SDS011;66426;51.454;7.266;2023-03-20T03:32:18;7.68;;;4.10;;
77359;SDS011;66426;51.454;7.266;2023-03-20T03:33:20;7.45;;;3.75;;
77359;SDS011;66426;51.454;7.266;2023-03-20T03:34:22;8.10;;;3.95;;
77359;SDS011;66426;51.454;7.266;2023-03-20T03:35:24;7.43;;;3.95;;
77359;SDS011;66426;51.454;7.266;2023-03-20T03:36:28;8.65;;;4.05;;
77359;SDS011;66426;51.454;7.266;2023-03-20T03:37:37;7.88;;;3.80;;
77359;SDS011;66426;51.454;7.266;2023-03-20T03:38:41;8.85;;;4.47;;
77359;SDS011;66426;51.454;7.266;2023-03-20T03:39:47;6.60;;;3.63;;
77359;SDS011;66426;51.454;7.266;2023-03-20T03:40:51;7.38;;;3.88;;
77359;SDS011;66426;51.454;7.266;2023-03-20T03:41:54;6.70;;;3.67;;
77359;SDS011;66426;51.454;7.266;2023-03-20T03:42:57;7.32;;;3.88;;
77359;SDS011;66426;51.454;7.266;2023-03-20T03:44:03;8.60;;;4.10;;
77359;SDS011;66426;51.454;7.266;2023-03-20T03:46:08;7.57;;;3.33;;
77359;SDS011;66426;51.454;7.266;2023-03-20T03:47:11;8.25;;;4.20;;
77359;SDS011;66426;51.454;7.266;2023-03-20T03:48:14;9.43;;;4.30;;
77359;SDS011;66426;51.454;7.266;2023-03-20T03:49:19;7.97;;;4.30;;
77359;SDS011;66426;51.454;7.266;2023-03-20T03:50:20;10.38;;;4.50;;
77359;SDS011;66426;51.454;7.266;2023-03-20T03:51:23;9.93;;;4.30;;
77359;SDS011;66426;51.454;7.266;2023-03-20T03:52:24;9.23;;;4.15;;
77359;SDS011;66426;51.454;7.266;2023-03-20T03:53:26;7.45;;;4.22;;
77359;SDS011;66426;51.454;7.266;2023-03-20T03:54:29;8.02;;;4.35;;
77359;SDS011;66426;51.454;7.266;2023-03-20T03:55:33;10.98;;;5.82;;
77359;SDS011;66426;51.454;7.266;2023-03-20T03:56:36;9.55;;;5.63;;
77359;SDS011;66426;51.454;7.266;2023-03-20T03:57:39;12.45;;;5.80;;
77359;SDS011;66426;51.454;7.266;2023-03-20T03:58:41;11.27;;;4.72;;
77359;SDS011;66426;51.454;7.266;2023-03-20T03:59:44;12.05;;;5.90;;
77359;SDS011;66426;51.454;7.266;2023-03-20T04:00:47;9.77;;;5.00;;
77359;SDS011;66426;51.454;7.266;2023-03-20T04:01:50;14.20;;;5.72;;
77359;SDS011;66426;51.454;7.266;2023-03-20T04:02:52;10.77;;;5.88;;
77359;SDS011;66426;51.454;7.266;2023-03-20T04:03:54;9.07;;;5.20;;
77359;SDS011;66426;51.454;7.266;2023-03-20T04:04:57;9.75;;;5.30;;
77359;SDS011;66426;51.454;7.266;2023-03-20T04:05:58;10.43;;;4.90;;
77359;SDS011;66426;51.454;7.266;2023-03-20T04:07:00;10.98;;;5.05;;
77359;SDS011;66426;51.454;7.266;2023-03-20T04:08:01;12.45;;;5.53;;
77359;SDS011;66426;51.454;7.266;2023-03-20T04:09:02;9.10;;;4.85;;
77359;SDS011;66426;51.454;7.266;2023-03-20T04:10:03;11.15;;;5.20;;
77359;SDS011;66426;51.454;7.266;2023-03-20T04:11:05;9.57;;;5.05;;
77359;SDS011;66426;51.454;7.266;2023-03-20T04:12:07;10.38;;;5.35;;
77359;SDS011;66426;51.454;7.266;2023-03-20T04:13:18;10.13;;;5.00;;
77359;SDS011;66426;51.454;7.266;2023-03-20T04:14:19;10.43;;;5.32;;
77359;SDS011;66426;51.454;7.266;2023-03-20T04:15:20;10.13;;;5.55;;
77359;SDS011;66426;51.454;7.266;2023-03-20T04:16:22;9.50;;;4.80;;
77359;SDS011;66426;51.454;7.266;2023-03-20T04:17:23;10.32;;;5.30;;
77359;SDS011;66426;51.454;7.266;2023-03-20T04:18:23;10.05;;;5.63;;
77359;SDS011;66426;51.454;7.266;2023-03-20T04:19:24;11.73;;;6.07;;
77359;SDS011;66426;51.454;7.266;2023-03-20T04:20:25;10.07;;;5.07;;
77359;SDS011;66426;51.454;7.266;2023-03-20T04:21:25;10.43;;;5.55;;
77359;SDS011;66426;51.454;7.266;2023-03-20T04:22:26;12.18;;;5.72;;
77359;SDS011;66426;51.454;7.266;2023-03-20T04:23:27;11.65;;;5.70;;
77359;SDS011;66426;51.454;7.266;2023-03-20T04:24:28;11.43;;;5.22;;
77359;SDS011;66426;51.454;7.266;2023-03-20T04:25:29;10.88;;;5.78;;
77359;SDS011;66426;51.454;7.266;2023-03-20T04:26:31;11.88;;;5.30;;
77359;SDS011;66426;51.454;7.266;2023-03-20T04:27:32;10.77;;;5.70;;
77359;SDS011;66426;51.454;7.266;2023-03-20T04:28:33;13.23;;;5.78;;
77359;SDS011;66426;51.454;7.266;2023-03-20T04:29:34;12.77;;;5.97;;
77359;SDS011;66426;51.454;7.266;2023-03-20T04:30:35;12.63;;;6.38;;
77359;SDS011;66426;51.454;7.266;2023-03-20T04:31:36;11.75;;;5.45;;
77359;SDS011;66426;51.454;7.266;2023-03-20T04:32:37;12.75;;;5.60;;
77359;SDS011;66426;51.454;7.266;2023-03-20T04:33:38;16.08;;;6.50;;
77359;SDS011;66426;51.454;7.266;2023-03-20T04:34:38;12.63;;;6.22;;
77359;SDS011;66426;51.454;7.266;2023-03-20T04:35:39;10.93;;;5.38;;
77359;SDS011;66426;51.454;7.266;2023-03-20T04:36:40;14.27;;;7.03;;
77359;SDS011;66426;51.454;7.266;2023-03-20T04:37:41;10.65;;;5.50;;
77359;SDS011;66426;51.454;7.266;2023-03-20T04:38:42;14.88;;;5.93;;
77359;SDS011;66426;51.454;7.266;2023-03-20T04:39:42;13.40;;;6.28;;
77359;SDS011;66426;51.454;7.266;2023-03-20T04:40:43;12.82;;;6.40;;
77359;SDS011;66426;51.454;7.266;2023-03-20T04:41:46;12.40;;;6.22;;
77359;SDS011;66426;51.454;7.266;2023-03-20T04:42:47;14.18;;;6.60;;
77359;SDS011;66426;51.454;7.266;2023-03-20T04:43:48;13.00;;;6.38;;
77359;SDS011;66426;51.454;7.266;2023-03-20T04:44:48;12.13;;;6.22;;
77359;SDS011;66426;51.454;7.266;2023-03-20T04:45:49;11.85;;;6.47;;
77359;SDS011;66426;51.454;7.266;2023-03-20T04:46:50;13.35;;;6.47;;
77359;SDS011;66426;51.454;7.266;2023-03-20T04:47:50;12.82;;;6.53;;
77359;SDS011;66426;51.454;7.266;2023-03-20T04:48:51;15.90;;;7.00;;
77359;SDS011;66426;51.454;7.266;2023-03-20T04:49:52;12.75;;;6.63;;
77359;SDS011;66426;51.454;7.266;2023-03-20T04:50:52;14.18;;;7.05;;
77359;SDS011;66426;51.454;7.266;2023-03-20T04:51:53;14.20;;;6.90;;
77359;SDS011;66426;51.454;7.266;2023-03-20T04:52:54;13.73;;;7.07;;
77359;SDS011;66426;51.454;7.266;2023-03-20T04:53:55;12.98;;;6.18;;
77359;SDS011;66426;51.454;7.266;2023-03-20T04:54:56;13.48;;;6.60;;
77359;SDS011;66426;51.454;7.266;2023-03-20T04:55:56;12.80;;;5.88;;
77359;SDS011;66426;51.454;7.266;2023-03-20T04:56:58;12.77;;;6.57;;
77359;SDS011;66426;51.454;7.266;2023-03-20T04:57:59;14.82;;;7.05;;
77359;SDS011;66426;51.454;7.266;2023-03-20T04:59:00;15.18;;;6.85;;
77359;SDS011;66426;51.454;7.266;2023-03-20T05:00:01;14.15;;;7.15;;
77359;SDS011;66426;51.454;7.266;2023-03-20T05:01:01;12.52;;;6.18;;
77359;SDS011;66426;51.454;7.266;2023-03-20T05:02:02;14.13;;;7.03;;
77359;SDS011;66426;51.454;7.266;2023-03-20T05:03:03;14.73;;;6.93;;
77359;SDS011;66426;51.454;7.266;2023-03-20T05:04:04;15.15;;;7.70;;
77359;SDS011;66426;51.454;7.266;2023-03-20T05:05:05;15.27;;;8.02;;
77359;SDS011;66426;51.454;7.266;2023-03-20T05:06:06;16.70;;;7.53;;
77359;SDS011;66426;51.454;7.266;2023-03-20T05:07:06;17.38;;;7.38;;
77359;SDS011;66426;51.454;7.266;2023-03-20T05:08:07;13.35;;;6.15;;
77359;SDS011;66426;51.454;7.266;2023-03-20T05:09:08;14.73;;;6.53;;
77359;SDS011;66426;51.454;7.266;2023-03-20T05:10:09;16.92;;;7.47;;
77359;SDS011;66426;51.454;7.266;2023-03-20T05:11:10;14.88;;;7.15;;
77359;SDS011;66426;51.454;7.266;2023-03-20T05:12:12;13.80;;;6.85;;
77359;SDS011;66426;51.454;7.266;2023-03-20T05:13:13;14.75;;;7.63;;
77359;SDS011;66426;51.454;7.266;2023-03-20T05:14:13;14.73;;;7.65;;
77359;SDS011;66426;51.454;7.266;2023-03-20T05:15:14;15.05;;;7.40;;
77359;SDS011;66426;51.454;7.266;2023-03-20T05:16:15;16.02;;;7.20;;
77359;SDS011;66426;51.454;7.266;2023-03-20T05:17:16;14.48;;;6.93;;
77359;SDS011;66426;51.454;7.266;2023-03-20T05:18:18;15.13;;;7.65;;
77359;SDS011;66426;51.454;7.266;2023-03-20T05:19:19;13.63;;;6.53;;
77359;SDS011;66426;51.454;7.266;2023-03-20T05:20:20;16.70;;;7.35;;
77359;SDS011;66426;51.454;7.266;2023-03-20T05:21:21;14.57;;;6.28;;
77359;SDS011;66426;51.454;7.266;2023-03-20T05:22:22;12.00;;;6.35;;
77359;SDS011;66426;51.454;7.266;2023-03-20T05:23:22;14.82;;;7.60;;
77359;SDS011;66426;51.454;7.266;2023-03-20T05:24:23;15.40;;;6.97;;
77359;SDS011;66426;51.454;7.266;2023-03-20T05:25:24;14.65;;;6.65;;
77359;SDS011;66426;51.454;7.266;2023-03-20T05:26:24;15.23;;;6.95;;
77359;SDS011;66426;51.454;7.266;2023-03-20T05:27:27;13.07;;;7.00;;
77359;SDS011;66426;51.454;7.266;2023-03-20T05:28:27;15.20;;;7.10;;
77359;SDS011;66426;51.454;7.266;2023-03-20T05:29:28;12.82;;;6.60;;
77359;SDS011;66426;51.454;7.266;2023-03-20T05:30:29;13.07;;;7.10;;
77359;SDS011;66426;51.454;7.266;2023-03-20T05:31:30;13.00;;;6.43;;
77359;SDS011;66426;51.454;7.266;2023-03-20T05:32:30;13.40;;;6.70;;
77359;SDS011;66426;51.454;7.266;2023-03-20T05:33:31;13.25;;;6.70;;
77359;SDS011;66426;51.454;7.266;2023-03-20T05:34:32;13.13;;;6.55;;
77359;SDS011;66426;51.454;7.266;2023-03-20T05:35:32;13.23;;;6.88;;
77359;SDS011;66426;51.454;7.266;2023-03-20T05:36:33;12.95;;;6.20;;
77359;SDS011;66426;51.454;7.266;2023-03-20T05:37:34;14.48;;;6.70;;
77359;SDS011;66426;51.454;7.266;2023-03-20T05:38:34;15.32;;;6.32;;
77359;SDS011;66426;51.454;7.266;2023-03-20T05:39:35;15.05;;;6.72;;
77359;SDS011;66426;51.454;7.266;2023-03-20T05:40:36;15.20;;;6.60;;
77359;SDS011;66426;51.454;7.266;2023-03-20T05:41:37;13.77;;;7.30;;
77359;SDS011;66426;51.454;7.266;2023-03-20T05:42:39;13.73;;;6.57;;
77359;SDS011;66426;51.454;7.266;2023-03-20T05:43:39;13.00;;;6.05;;
77359;SDS011;66426;51.454;7.266;2023-03-20T05:44:40;12.85;;;6.25;;
77359;SDS011;66426;51.454;7.266;2023-03-20T05:45:41;16.45;;;6.63;;
77359;SDS011;66426;51.454;7.266;2023-03-20T05:46:42;13.52;;;6.65;;
77359;SDS011;66426;51.454;7.266;2023-03-20T05:47:43;15.57;;;7.10;;
77359;SDS011;66426;51.454;7.266;2023-03-20T05:48:43;13.63;;;6.32;;
77359;SDS011;66426;51.454;7.266;2023-03-20T05:49:44;12.52;;;6.32;;
77359;SDS011;66426;51.454;7.266;2023-03-20T05:50:45;13.88;;;6.55;;
77359;SDS011;66426;51.454;7.266;2023-03-20T05:51:46;16.08;;;7.55;;
77359;SDS011;66426;51.454;7.266;2023-03-20T05:52:47;14.35;;;6.28;;
77359;SDS011;66426;51.454;7.266;2023-03-20T05:53:47;17.70;;;7.18;;
77359;SDS011;66426;51.454;7.266;2023-03-20T05:54:48;12.98;;;6.72;;
77359;SDS011;66426;51.454;7.266;2023-03-20T05:55:49;14.00;;;6.60;;
77359;SDS011;66426;51.454;7.266;2023-03-20T05:56:50;14.50;;;6.85;;
77359;SDS011;66426;51.454;7.266;2023-03-20T05:57:52;14.45;;;7.22;;
77359;SDS011;66426;51.454;7.266;2023-03-20T05:58:52;16.77;;;7.15;;
77359;SDS011;66426;51.454;7.266;2023-03-20T05:59:53;14.40;;;6.78;;
77359;SDS011;66426;51.454;7.266;2023-03-20T06:00:55;14.55;;;6.93;;
77359;SDS011;66426;51.454;7.266;2023-03-20T06:01:56;13.93;;;6.78;;
77359;SDS011;66426;51.454;7.266;2023-03-20T06:02:57;14.80;;;6.70;;
77359;SDS011;66426;51.454;7.266;2023-03-20T06:03:57;14.40;;;6.85;;
77359;SDS011;66426;51.454;7.266;2023-03-20T06:04:58;14.10;;;6.80;;
77359;SDS011;66426;51.454;7.266;2023-03-20T06:05:59;13.18;;;6.68;;
77359;SDS011;66426;51.454;7.266;2023-03-20T06:06:59;12.73;;;6.53;;
77359;SDS011;66426;51.454;7.266;2023-03-20T06:08:01;13.18;;;6.50;;
77359;SDS011;66426;51.454;7.266;2023-03-20T06:09:02;15.50;;;6.90;;
77359;SDS011;66426;51.454;7.266;2023-03-20T06:10:03;13.88;;;6.68;;
77359;SDS011;66426;51.454;7.266;2023-03-20T06:11:04;13.30;;;5.90;;
77359;SDS011;66426;51.454;7.266;2023-03-20T06:12:05;14.23;;;6.75;;
77359;SDS011;66426;51.454;7.266;2023-03-20T06:13:07;13.98;;;6.68;;
77359;SDS011;66426;51.454;7.266;2023-03-20T06:14:08;11.50;;;5.53;;
77359;SDS011;66426;51.454;7.266;2023-03-20T06:15:09;13.43;;;6.35;;
77359;SDS011;66426;51.454;7.266;2023-03-20T06:16:10;13.48;;;6.75;;
77359;SDS011;66426;51.454;7.266;2023-03-20T06:17:10;19.92;;;7.18;;
77359;SDS011;66426;51.454;7.266;2023-03-20T06:18:11;13.48;;;6.00;;